You are not logged in, Click here to log in
ICAO: PANC Country: 美國阿拉斯加安克拉治市中心西南6公里
Latitude: 61.1744 Longitude: -149.996
Total Arrivals: 20 Total Departures: 19
Latest Arrival: AC538 (CYVR-PANC)CHUANYI. Lin Latest Departure: KO34 (PANC-PAKN)CHUANYI. Lin
Scenery:
METAR : PANC 180653Z 35012KT 5SM FU SCT060 17/06 A3014

泰德·史蒂文斯安克拉治國際機場ANC